sensor_id;sensor_type;location;lat;lon;timestamp;P1;durP1;ratioP1;P2;durP2;ratioP2
83247;SDS011;73465;51.038;7.052;2023-12-07T00:01:07;2.63;;;1.05;;
83247;SDS011;73465;51.038;7.052;2023-12-07T00:03:33;6.50;;;1.00;;
83247;SDS011;73465;51.038;7.052;2023-12-07T00:05:58;6.65;;;1.02;;
83247;SDS011;73465;51.038;7.052;2023-12-07T00:08:23;1.75;;;0.95;;
83247;SDS011;73465;51.038;7.052;2023-12-07T00:10:49;2.97;;;1.00;;
83247;SDS011;73465;51.038;7.052;2023-12-07T00:13:14;6.22;;;1.30;;
83247;SDS011;73465;51.038;7.052;2023-12-07T00:15:40;3.15;;;1.08;;
83247;SDS011;73465;51.038;7.052;2023-12-07T00:18:05;2.95;;;1.10;;
83247;SDS011;73465;51.038;7.052;2023-12-07T00:20:31;5.38;;;1.20;;
83247;SDS011;73465;51.038;7.052;2023-12-07T00:22:56;1.23;;;1.00;;
83247;SDS011;73465;51.038;7.052;2023-12-07T00:25:34;3.15;;;1.27;;
83247;SDS011;73465;51.038;7.052;2023-12-07T00:28:17;2.15;;;1.13;;
83247;SDS011;73465;51.038;7.052;2023-12-07T00:30:42;3.28;;;1.30;;
83247;SDS011;73465;51.038;7.052;2023-12-07T00:33:08;4.18;;;1.38;;
83247;SDS011;73465;51.038;7.052;2023-12-07T00:35:34;4.18;;;1.40;;
83247;SDS011;73465;51.038;7.052;2023-12-07T00:37:59;1.63;;;0.80;;
83247;SDS011;73465;51.038;7.052;2023-12-07T00:40:25;2.03;;;1.10;;
83247;SDS011;73465;51.038;7.052;2023-12-07T00:42:50;2.60;;;1.15;;
83247;SDS011;73465;51.038;7.052;2023-12-07T00:45:16;2.10;;;1.00;;
83247;SDS011;73465;51.038;7.052;2023-12-07T00:47:41;2.50;;;1.15;;
83247;SDS011;73465;51.038;7.052;2023-12-07T00:50:07;1.98;;;0.93;;
83247;SDS011;73465;51.038;7.052;2023-12-07T00:52:37;4.28;;;1.13;;
83247;SDS011;73465;51.038;7.052;2023-12-07T00:55:06;4.68;;;1.25;;
83247;SDS011;73465;51.038;7.052;2023-12-07T00:57:31;3.65;;;0.90;;
83247;SDS011;73465;51.038;7.052;2023-12-07T00:59:57;8.00;;;1.33;;
83247;SDS011;73465;51.038;7.052;2023-12-07T01:02:22;2.17;;;1.10;;
83247;SDS011;73465;51.038;7.052;2023-12-07T01:04:48;4.30;;;1.00;;
83247;SDS011;73465;51.038;7.052;2023-12-07T01:07:13;2.50;;;1.35;;
83247;SDS011;73465;51.038;7.052;2023-12-07T01:09:38;2.33;;;1.08;;
83247;SDS011;73465;51.038;7.052;2023-12-07T01:12:04;2.45;;;1.20;;
83247;SDS011;73465;51.038;7.052;2023-12-07T01:14:29;2.22;;;1.27;;
83247;SDS011;73465;51.038;7.052;2023-12-07T01:16:55;3.13;;;1.38;;
83247;SDS011;73465;51.038;7.052;2023-12-07T01:19:20;2.78;;;0.80;;
83247;SDS011;73465;51.038;7.052;2023-12-07T01:21:46;3.30;;;1.20;;
83247;SDS011;73465;51.038;7.052;2023-12-07T01:24:11;4.28;;;1.05;;
83247;SDS011;73465;51.038;7.052;2023-12-07T01:26:37;2.65;;;1.25;;
83247;SDS011;73465;51.038;7.052;2023-12-07T01:29:02;2.80;;;1.10;;
83247;SDS011;73465;51.038;7.052;2023-12-07T01:31:28;2.90;;;1.10;;
83247;SDS011;73465;51.038;7.052;2023-12-07T01:33:55;2.97;;;1.08;;
83247;SDS011;73465;51.038;7.052;2023-12-07T01:36:20;3.42;;;1.02;;
83247;SDS011;73465;51.038;7.052;2023-12-07T01:38:46;4.75;;;1.00;;
83247;SDS011;73465;51.038;7.052;2023-12-07T01:41:11;5.82;;;0.90;;
83247;SDS011;73465;51.038;7.052;2023-12-07T01:43:37;1.90;;;0.90;;
83247;SDS011;73465;51.038;7.052;2023-12-07T01:46:02;2.58;;;1.23;;
83247;SDS011;73465;51.038;7.052;2023-12-07T01:48:28;1.92;;;1.17;;
83247;SDS011;73465;51.038;7.052;2023-12-07T01:50:55;4.35;;;1.10;;
83247;SDS011;73465;51.038;7.052;2023-12-07T01:53:23;2.00;;;1.02;;
83247;SDS011;73465;51.038;7.052;2023-12-07T01:55:50;2.25;;;1.05;;
83247;SDS011;73465;51.038;7.052;2023-12-07T01:58:17;2.45;;;1.02;;
83247;SDS011;73465;51.038;7.052;2023-12-07T02:00:45;1.70;;;0.90;;
83247;SDS011;73465;51.038;7.052;2023-12-07T02:03:12;4.57;;;0.98;;
83247;SDS011;73465;51.038;7.052;2023-12-07T02:05:40;3.90;;;1.30;;
83247;SDS011;73465;51.038;7.052;2023-12-07T02:08:08;7.75;;;1.02;;
83247;SDS011;73465;51.038;7.052;2023-12-07T02:10:33;2.72;;;1.00;;
83247;SDS011;73465;51.038;7.052;2023-12-07T02:12:59;1.80;;;1.10;;
83247;SDS011;73465;51.038;7.052;2023-12-07T02:15:25;1.92;;;1.20;;
83247;SDS011;73465;51.038;7.052;2023-12-07T02:23:23;2.58;;;0.80;;
83247;SDS011;73465;51.038;7.052;2023-12-07T02:28:50;1.40;;;0.90;;
83247;SDS011;73465;51.038;7.052;2023-12-07T02:31:17;2.00;;;1.10;;
83247;SDS011;73465;51.038;7.052;2023-12-07T02:33:45;1.83;;;1.02;;
83247;SDS011;73465;51.038;7.052;2023-12-07T02:36:13;5.32;;;0.90;;
83247;SDS011;73465;51.038;7.052;2023-12-07T02:38:42;2.47;;;1.00;;
83247;SDS011;73465;51.038;7.052;2023-12-07T02:41:09;5.25;;;0.90;;
83247;SDS011;73465;51.038;7.052;2023-12-07T02:43:36;2.90;;;0.95;;
83247;SDS011;73465;51.038;7.052;2023-12-07T02:46:02;2.15;;;1.20;;
83247;SDS011;73465;51.038;7.052;2023-12-07T02:48:27;2.22;;;1.25;;
83247;SDS011;73465;51.038;7.052;2023-12-07T02:50:55;1.98;;;1.00;;
83247;SDS011;73465;51.038;7.052;2023-12-07T02:53:21;2.92;;;1.40;;
83247;SDS011;73465;51.038;7.052;2023-12-07T02:55:49;4.00;;;0.93;;
83247;SDS011;73465;51.038;7.052;2023-12-07T02:58:17;3.28;;;1.10;;
83247;SDS011;73465;51.038;7.052;2023-12-07T03:00:43;6.10;;;0.93;;
83247;SDS011;73465;51.038;7.052;2023-12-07T03:03:08;4.45;;;1.08;;
83247;SDS011;73465;51.038;7.052;2023-12-07T03:05:34;4.00;;;1.15;;
83247;SDS011;73465;51.038;7.052;2023-12-07T03:07:59;8.88;;;1.10;;
83247;SDS011;73465;51.038;7.052;2023-12-07T03:10:24;3.38;;;1.20;;
83247;SDS011;73465;51.038;7.052;2023-12-07T03:12:50;1.35;;;0.85;;
83247;SDS011;73465;51.038;7.052;2023-12-07T03:15:16;1.45;;;1.00;;
83247;SDS011;73465;51.038;7.052;2023-12-07T03:17:41;6.75;;;1.98;;
83247;SDS011;73465;51.038;7.052;2023-12-07T03:20:08;2.35;;;1.00;;
83247;SDS011;73465;51.038;7.052;2023-12-07T03:22:35;5.13;;;1.00;;
83247;SDS011;73465;51.038;7.052;2023-12-07T03:25:01;3.35;;;1.30;;
83247;SDS011;73465;51.038;7.052;2023-12-07T03:27:26;6.32;;;1.33;;
83247;SDS011;73465;51.038;7.052;2023-12-07T03:29:53;1.77;;;1.08;;
83247;SDS011;73465;51.038;7.052;2023-12-07T03:32:18;1.58;;;1.00;;
83247;SDS011;73465;51.038;7.052;2023-12-07T03:34:44;2.78;;;1.00;;
83247;SDS011;73465;51.038;7.052;2023-12-07T03:37:09;2.22;;;1.08;;
83247;SDS011;73465;51.038;7.052;2023-12-07T03:39:34;3.42;;;1.00;;
83247;SDS011;73465;51.038;7.052;2023-12-07T03:42:00;1.80;;;0.82;;
83247;SDS011;73465;51.038;7.052;2023-12-07T03:44:25;3.13;;;1.10;;
83247;SDS011;73465;51.038;7.052;2023-12-07T03:46:51;2.15;;;1.00;;
83247;SDS011;73465;51.038;7.052;2023-12-07T03:49:17;1.73;;;1.00;;
83247;SDS011;73465;51.038;7.052;2023-12-07T03:51:42;1.98;;;0.90;;
83247;SDS011;73465;51.038;7.052;2023-12-07T03:54:08;1.48;;;0.80;;
83247;SDS011;73465;51.038;7.052;2023-12-07T03:56:33;1.50;;;0.90;;
83247;SDS011;73465;51.038;7.052;2023-12-07T03:58:58;3.13;;;1.20;;
83247;SDS011;73465;51.038;7.052;2023-12-07T04:01:24;2.78;;;0.80;;
83247;SDS011;73465;51.038;7.052;2023-12-07T04:03:51;3.20;;;1.02;;
83247;SDS011;73465;51.038;7.052;2023-12-07T04:06:17;1.70;;;0.75;;
83247;SDS011;73465;51.038;7.052;2023-12-07T04:08:43;4.20;;;1.25;;
83247;SDS011;73465;51.038;7.052;2023-12-07T04:11:08;3.53;;;1.05;;
83247;SDS011;73465;51.038;7.052;2023-12-07T04:13:34;8.23;;;1.10;;
83247;SDS011;73465;51.038;7.052;2023-12-07T04:15:59;8.65;;;1.70;;
83247;SDS011;73465;51.038;7.052;2023-12-07T04:18:24;4.50;;;1.27;;
83247;SDS011;73465;51.038;7.052;2023-12-07T04:20:50;4.03;;;1.35;;
83247;SDS011;73465;51.038;7.052;2023-12-07T04:23:15;11.32;;;1.40;;
83247;SDS011;73465;51.038;7.052;2023-12-07T04:25:40;3.78;;;1.23;;
83247;SDS011;73465;51.038;7.052;2023-12-07T04:28:06;4.90;;;1.27;;
83247;SDS011;73465;51.038;7.052;2023-12-07T04:30:31;2.90;;;1.45;;
83247;SDS011;73465;51.038;7.052;2023-12-07T04:32:56;4.05;;;1.00;;
83247;SDS011;73465;51.038;7.052;2023-12-07T04:35:22;7.45;;;0.90;;
83247;SDS011;73465;51.038;7.052;2023-12-07T04:37:47;3.78;;;1.40;;
83247;SDS011;73465;51.038;7.052;2023-12-07T04:40:12;4.88;;;1.00;;
83247;SDS011;73465;51.038;7.052;2023-12-07T04:42:38;2.90;;;1.10;;
83247;SDS011;73465;51.038;7.052;2023-12-07T04:45:03;1.98;;;1.02;;
83247;SDS011;73465;51.038;7.052;2023-12-07T04:47:29;6.57;;;1.15;;
83247;SDS011;73465;51.038;7.052;2023-12-07T04:49:54;3.65;;;1.10;;
83247;SDS011;73465;51.038;7.052;2023-12-07T04:52:20;11.82;;;1.45;;
83247;SDS011;73465;51.038;7.052;2023-12-07T04:54:45;2.45;;;1.00;;
83247;SDS011;73465;51.038;7.052;2023-12-07T04:57:10;3.40;;;1.02;;
83247;SDS011;73465;51.038;7.052;2023-12-07T04:59:36;9.77;;;1.52;;
83247;SDS011;73465;51.038;7.052;2023-12-07T05:02:01;2.50;;;0.88;;
83247;SDS011;73465;51.038;7.052;2023-12-07T05:04:27;3.42;;;1.10;;
83247;SDS011;73465;51.038;7.052;2023-12-07T05:09:19;4.07;;;0.90;;
83247;SDS011;73465;51.038;7.052;2023-12-07T05:11:46;3.88;;;1.10;;
83247;SDS011;73465;51.038;7.052;2023-12-07T05:14:12;6.53;;;1.10;;
83247;SDS011;73465;51.038;7.052;2023-12-07T05:16:37;3.75;;;1.40;;
83247;SDS011;73465;51.038;7.052;2023-12-07T05:19:02;4.82;;;1.00;;
83247;SDS011;73465;51.038;7.052;2023-12-07T05:21:28;3.40;;;1.27;;
83247;SDS011;73465;51.038;7.052;2023-12-07T05:23:53;5.53;;;0.88;;
83247;SDS011;73465;51.038;7.052;2023-12-07T05:26:18;5.07;;;1.30;;
83247;SDS011;73465;51.038;7.052;2023-12-07T05:28:44;5.55;;;1.50;;
83247;SDS011;73465;51.038;7.052;2023-12-07T05:31:15;3.08;;;0.85;;
83247;SDS011;73465;51.038;7.052;2023-12-07T05:33:44;3.60;;;1.00;;
83247;SDS011;73465;51.038;7.052;2023-12-07T05:36:09;3.20;;;1.10;;
83247;SDS011;73465;51.038;7.052;2023-12-07T05:38:35;3.97;;;1.20;;
83247;SDS011;73465;51.038;7.052;2023-12-07T05:41:00;2.17;;;0.90;;
83247;SDS011;73465;51.038;7.052;2023-12-07T05:43:25;4.45;;;1.10;;
83247;SDS011;73465;51.038;7.052;2023-12-07T05:45:50;4.53;;;1.70;;
83247;SDS011;73465;51.038;7.052;2023-12-07T05:48:16;1.50;;;0.80;;
83247;SDS011;73465;51.038;7.052;2023-12-07T05:50:41;2.92;;;1.00;;
83247;SDS011;73465;51.038;7.052;2023-12-07T05:53:07;2.55;;;1.08;;
83247;SDS011;73465;51.038;7.052;2023-12-07T05:55:32;3.72;;;0.85;;
83247;SDS011;73465;51.038;7.052;2023-12-07T05:57:58;2.67;;;1.08;;
83247;SDS011;73465;51.038;7.052;2023-12-07T06:00:23;5.90;;;0.80;;
83247;SDS011;73465;51.038;7.052;2023-12-07T06:02:50;2.42;;;1.00;;
83247;SDS011;73465;51.038;7.052;2023-12-07T06:05:15;2.75;;;1.00;;
83247;SDS011;73465;51.038;7.052;2023-12-07T06:07:40;2.30;;;0.80;;
83247;SDS011;73465;51.038;7.052;2023-12-07T06:10:06;2.75;;;1.00;;
83247;SDS011;73465;51.038;7.052;2023-12-07T06:12:31;4.70;;;1.30;;
83247;SDS011;73465;51.038;7.052;2023-12-07T06:14:57;2.40;;;0.98;;
83247;SDS011;73465;51.038;7.052;2023-12-07T06:17:22;6.90;;;1.02;;
83247;SDS011;73465;51.038;7.052;2023-12-07T06:19:47;3.13;;;1.20;;
83247;SDS011;73465;51.038;7.052;2023-12-07T06:22:13;2.80;;;0.90;;
83247;SDS011;73465;51.038;7.052;2023-12-07T06:24:38;1.88;;;1.00;;
83247;SDS011;73465;51.038;7.052;2023-12-07T06:27:04;3.65;;;1.30;;
83247;SDS011;73465;51.038;7.052;2023-12-07T06:29:29;3.33;;;1.00;;
83247;SDS011;73465;51.038;7.052;2023-12-07T06:31:55;2.03;;;1.00;;
83247;SDS011;73465;51.038;7.052;2023-12-07T06:34:20;3.10;;;1.35;;
83247;SDS011;73465;51.038;7.052;2023-12-07T06:36:46;2.40;;;0.90;;
83247;SDS011;73465;51.038;7.052;2023-12-07T06:39:12;4.57;;;1.20;;
83247;SDS011;73465;51.038;7.052;2023-12-07T06:41:38;3.45;;;1.05;;
83247;SDS011;73465;51.038;7.052;2023-12-07T06:44:04;2.35;;;1.08;;
83247;SDS011;73465;51.038;7.052;2023-12-07T06:46:29;3.30;;;0.90;;
83247;SDS011;73465;51.038;7.052;2023-12-07T06:48:54;4.07;;;1.10;;
83247;SDS011;73465;51.038;7.052;2023-12-07T06:51:20;1.42;;;0.70;;
83247;SDS011;73465;51.038;7.052;2023-12-07T06:53:45;6.90;;;1.08;;
83247;SDS011;73465;51.038;7.052;2023-12-07T06:56:10;2.90;;;1.00;;
83247;SDS011;73465;51.038;7.052;2023-12-07T06:58:35;11.02;;;1.00;;
83247;SDS011;73465;51.038;7.052;2023-12-07T07:01:01;6.53;;;0.80;;
83247;SDS011;73465;51.038;7.052;2023-12-07T07:03:26;3.85;;;1.15;;
83247;SDS011;73465;51.038;7.052;2023-12-07T07:05:54;2.20;;;0.75;;
83247;SDS011;73465;51.038;7.052;2023-12-07T07:08:20;27.02;;;2.65;;
83247;SDS011;73465;51.038;7.052;2023-12-07T07:10:45;10.43;;;1.13;;
83247;SDS011;73465;51.038;7.052;2023-12-07T07:13:12;9.93;;;1.63;;
83247;SDS011;73465;51.038;7.052;2023-12-07T07:15:41;11.00;;;1.60;;
83247;SDS011;73465;51.038;7.052;2023-12-07T07:18:07;8.38;;;5.47;;
83247;SDS011;73465;51.038;7.052;2023-12-07T07:20:32;11.82;;;6.43;;
83247;SDS011;73465;51.038;7.052;2023-12-07T07:22:57;10.13;;;6.32;;
83247;SDS011;73465;51.038;7.052;2023-12-07T07:25:23;11.75;;;6.47;;
83247;SDS011;73465;51.038;7.052;2023-12-07T07:27:48;10.45;;;4.95;;
83247;SDS011;73465;51.038;7.052;2023-12-07T07:30:13;9.68;;;5.22;;
83247;SDS011;73465;51.038;7.052;2023-12-07T07:32:39;8.63;;;4.05;;
83247;SDS011;73465;51.038;7.052;2023-12-07T07:35:05;9.32;;;3.85;;
83247;SDS011;73465;51.038;7.052;2023-12-07T07:37:31;11.40;;;3.67;;
83247;SDS011;73465;51.038;7.052;2023-12-07T07:39:56;6.22;;;3.20;;
83247;SDS011;73465;51.038;7.052;2023-12-07T07:42:21;4.78;;;2.40;;
83247;SDS011;73465;51.038;7.052;2023-12-07T07:44:47;3.45;;;2.83;;
83247;SDS011;73465;51.038;7.052;2023-12-07T07:47:12;4.75;;;2.67;;
83247;SDS011;73465;51.038;7.052;2023-12-07T07:49:37;6.70;;;2.90;;
83247;SDS011;73465;51.038;7.052;2023-12-07T07:52:04;3.33;;;1.92;;
83247;SDS011;73465;51.038;7.052;2023-12-07T07:54:30;3.63;;;2.15;;
83247;SDS011;73465;51.038;7.052;2023-12-07T07:56:55;3.92;;;1.80;;
83247;SDS011;73465;51.038;7.052;2023-12-07T07:59:21;6.93;;;2.22;;
83247;SDS011;73465;51.038;7.052;2023-12-07T08:01:46;4.32;;;2.13;;
83247;SDS011;73465;51.038;7.052;2023-12-07T08:04:15;3.88;;;1.70;;
83247;SDS011;73465;51.038;7.052;2023-12-07T08:06:40;3.10;;;1.92;;
83247;SDS011;73465;51.038;7.052;2023-12-07T08:09:07;2.20;;;1.38;;
83247;SDS011;73465;51.038;7.052;2023-12-07T08:11:33;4.25;;;1.73;;
83247;SDS011;73465;51.038;7.052;2023-12-07T08:13:58;2.10;;;1.40;;
83247;SDS011;73465;51.038;7.052;2023-12-07T08:16:23;2.30;;;1.60;;
83247;SDS011;73465;51.038;7.052;2023-12-07T08:18:49;2.78;;;1.70;;
83247;SDS011;73465;51.038;7.052;2023-12-07T08:21:23;3.78;;;1.63;;
83247;SDS011;73465;51.038;7.052;2023-12-07T08:23:50;3.20;;;1.70;;
83247;SDS011;73465;51.038;7.052;2023-12-07T08:26:16;3.95;;;1.70;;
83247;SDS011;73465;51.038;7.052;2023-12-07T08:28:42;2.10;;;1.50;;
83247;SDS011;73465;51.038;7.052;2023-12-07T08:31:07;2.30;;;1.60;;
83247;SDS011;73465;51.038;7.052;2023-12-07T08:33:33;2.13;;;1.17;;
83247;SDS011;73465;51.038;7.052;2023-12-07T08:36:04;2.08;;;1.60;;
83247;SDS011;73465;51.038;7.052;2023-12-07T08:38:31;2.58;;;1.63;;
83247;SDS011;73465;51.038;7.052;2023-12-07T08:40:57;2.83;;;1.48;;
83247;SDS011;73465;51.038;7.052;2023-12-07T08:43:23;2.15;;;1.23;;
83247;SDS011;73465;51.038;7.052;2023-12-07T08:45:49;5.10;;;1.40;;
83247;SDS011;73465;51.038;7.052;2023-12-07T08:48:15;2.47;;;1.67;;
83247;SDS011;73465;51.038;7.052;2023-12-07T08:50:41;2.53;;;1.25;;
83247;SDS011;73465;51.038;7.052;2023-12-07T08:53:06;2.45;;;1.30;;
83247;SDS011;73465;51.038;7.052;2023-12-07T08:55:32;1.90;;;1.17;;
83247;SDS011;73465;51.038;7.052;2023-12-07T08:57:57;2.95;;;1.35;;
83247;SDS011;73465;51.038;7.052;2023-12-07T09:00:24;1.75;;;1.25;;
83247;SDS011;73465;51.038;7.052;2023-12-07T09:02:50;2.00;;;1.20;;
83247;SDS011;73465;51.038;7.052;2023-12-07T09:05:17;2.03;;;1.42;;
83247;SDS011;73465;51.038;7.052;2023-12-07T09:07:42;2.78;;;1.30;;
83247;SDS011;73465;51.038;7.052;2023-12-07T09:10:08;2.42;;;1.40;;
83247;SDS011;73465;51.038;7.052;2023-12-07T09:12:36;2.30;;;1.38;;
83247;SDS011;73465;51.038;7.052;2023-12-07T09:15:02;1.73;;;1.23;;
83247;SDS011;73465;51.038;7.052;2023-12-07T09:17:28;1.38;;;1.00;;
83247;SDS011;73465;51.038;7.052;2023-12-07T09:19:54;1.73;;;1.10;;
83247;SDS011;73465;51.038;7.052;2023-12-07T09:22:19;2.28;;;1.40;;
83247;SDS011;73465;51.038;7.052;2023-12-07T09:24:45;4.10;;;1.38;;
83247;SDS011;73465;51.038;7.052;2023-12-07T09:27:11;2.60;;;1.38;;
83247;SDS011;73465;51.038;7.052;2023-12-07T09:29:38;2.40;;;1.25;;
83247;SDS011;73465;51.038;7.052;2023-12-07T09:32:03;1.83;;;1.02;;
83247;SDS011;73465;51.038;7.052;2023-12-07T09:34:29;1.67;;;1.13;;
83247;SDS011;73465;51.038;7.052;2023-12-07T09:37:07;1.73;;;1.23;;
83247;SDS011;73465;51.038;7.052;2023-12-07T09:39:33;3.05;;;1.27;;
83247;SDS011;73465;51.038;7.052;2023-12-07T09:41:59;6.07;;;1.08;;
83247;SDS011;73465;51.038;7.052;2023-12-07T09:44:24;2.72;;;1.48;;
83247;SDS011;73465;51.038;7.052;2023-12-07T09:46:50;1.77;;;1.45;;
83247;SDS011;73465;51.038;7.052;2023-12-07T09:49:16;1.27;;;1.05;;
83247;SDS011;73465;51.038;7.052;2023-12-07T09:51:42;3.08;;;1.20;;
83247;SDS011;73465;51.038;7.052;2023-12-07T09:54:09;2.92;;;1.30;;
83247;SDS011;73465;51.038;7.052;2023-12-07T09:56:36;2.80;;;1.13;;
83247;SDS011;73465;51.038;7.052;2023-12-07T09:59:01;3.88;;;1.40;;
83247;SDS011;73465;51.038;7.052;2023-12-07T10:01:30;4.18;;;1.20;;
83247;SDS011;73465;51.038;7.052;2023-12-07T10:06:44;2.47;;;1.27;;
83247;SDS011;73465;51.038;7.052;2023-12-07T10:09:13;1.73;;;0.90;;
83247;SDS011;73465;51.038;7.052;2023-12-07T10:11:38;4.25;;;1.40;;
83247;SDS011;73465;51.038;7.052;2023-12-07T10:14:07;1.38;;;1.02;;
83247;SDS011;73465;51.038;7.052;2023-12-07T10:16:33;3.67;;;1.10;;
83247;SDS011;73465;51.038;7.052;2023-12-07T10:19:14;1.95;;;0.90;;
83247;SDS011;73465;51.038;7.052;2023-12-07T10:21:44;1.88;;;1.02;;
83247;SDS011;73465;51.038;7.052;2023-12-07T10:24:10;2.25;;;0.95;;
83247;SDS011;73465;51.038;7.052;2023-12-07T10:26:35;3.78;;;1.50;;
83247;SDS011;73465;51.038;7.052;2023-12-07T10:29:04;6.72;;;1.30;;
83247;SDS011;73465;51.038;7.052;2023-12-07T10:31:30;3.22;;;1.35;;
83247;SDS011;73465;51.038;7.052;2023-12-07T10:33:56;4.25;;;1.10;;
83247;SDS011;73465;51.038;7.052;2023-12-07T10:36:21;1.23;;;1.00;;
83247;SDS011;73465;51.038;7.052;2023-12-07T10:38:46;6.20;;;1.17;;
83247;SDS011;73465;51.038;7.052;2023-12-07T10:41:16;6.28;;;1.27;;
83247;SDS011;73465;51.038;7.052;2023-12-07T10:43:43;7.93;;;1.20;;
83247;SDS011;73465;51.038;7.052;2023-12-07T10:46:14;1.20;;;1.08;;
83247;SDS011;73465;51.038;7.052;2023-12-07T10:48:43;4.68;;;1.10;;
83247;SDS011;73465;51.038;7.052;2023-12-07T10:51:09;3.13;;;1.20;;
83247;SDS011;73465;51.038;7.052;2023-12-07T10:54:02;1.10;;;1.00;;
83247;SDS011;73465;51.038;7.052;2023-12-07T10:56:31;1.48;;;1.02;;
83247;SDS011;73465;51.038;7.052;2023-12-07T10:59:05;8.45;;;1.20;;
83247;SDS011;73465;51.038;7.052;2023-12-07T11:01:31;2.20;;;1.25;;
83247;SDS011;73465;51.038;7.052;2023-12-07T11:03:58;2.17;;;1.10;;
83247;SDS011;73465;51.038;7.052;2023-12-07T11:06:25;2.20;;;1.20;;
83247;SDS011;73465;51.038;7.052;2023-12-07T11:08:51;2.53;;;1.25;;
83247;SDS011;73465;51.038;7.052;2023-12-07T11:14:05;2.40;;;1.10;;
83247;SDS011;73465;51.038;7.052;2023-12-07T11:16:33;1.95;;;1.38;;
83247;SDS011;73465;51.038;7.052;2023-12-07T11:19:02;1.27;;;1.00;;
83247;SDS011;73465;51.038;7.052;2023-12-07T11:21:28;1.45;;;1.33;;
83247;SDS011;73465;51.038;7.052;2023-12-07T11:23:53;5.13;;;1.17;;
83247;SDS011;73465;51.038;7.052;2023-12-07T11:26:20;1.38;;;1.08;;
83247;SDS011;73465;51.038;7.052;2023-12-07T11:28:47;3.15;;;1.10;;
83247;SDS011;73465;51.038;7.052;2023-12-07T11:31:13;4.75;;;0.82;;
83247;SDS011;73465;51.038;7.052;2023-12-07T11:33:38;3.63;;;1.25;;
83247;SDS011;73465;51.038;7.052;2023-12-07T11:38:35;2.00;;;1.08;;
83247;SDS011;73465;51.038;7.052;2023-12-07T11:41:21;1.95;;;1.23;;
83247;SDS011;73465;51.038;7.052;2023-12-07T11:43:46;2.60;;;1.10;;
83247;SDS011;73465;51.038;7.052;2023-12-07T11:46:12;10.25;;;1.10;;
83247;SDS011;73465;51.038;7.052;2023-12-07T11:48:39;1.20;;;0.90;;
83247;SDS011;73465;51.038;7.052;2023-12-07T11:51:05;2.85;;;1.33;;
83247;SDS011;73465;51.038;7.052;2023-12-07T11:53:35;4.38;;;1.30;;
83247;SDS011;73465;51.038;7.052;2023-12-07T11:56:03;2.30;;;0.98;;
83247;SDS011;73465;51.038;7.052;2023-12-07T11:58:31;3.88;;;1.10;;
83247;SDS011;73465;51.038;7.052;2023-12-07T12:00:57;4.93;;;1.42;;
83247;SDS011;73465;51.038;7.052;2023-12-07T12:03:23;1.40;;;1.20;;
83247;SDS011;73465;51.038;7.052;2023-12-07T12:05:49;1.48;;;0.93;;
83247;SDS011;73465;51.038;7.052;2023-12-07T12:08:15;2.03;;;1.02;;
83247;SDS011;73465;51.038;7.052;2023-12-07T12:10:45;1.92;;;1.00;;
83247;SDS011;73465;51.038;7.052;2023-12-07T12:13:11;7.47;;;1.00;;
83247;SDS011;73465;51.038;7.052;2023-12-07T12:15:38;4.43;;;1.08;;
83247;SDS011;73465;51.038;7.052;2023-12-07T12:18:05;2.13;;;0.90;;
83247;SDS011;73465;51.038;7.052;2023-12-07T12:20:31;1.10;;;0.70;;
83247;SDS011;73465;51.038;7.052;2023-12-07T12:22:57;2.00;;;1.05;;
83247;SDS011;73465;51.038;7.052;2023-12-07T12:25:24;5.57;;;1.10;;
83247;SDS011;73465;51.038;7.052;2023-12-07T12:28:13;1.88;;;1.00;;
83247;SDS011;73465;51.038;7.052;2023-12-07T12:30:39;2.33;;;1.30;;
83247;SDS011;73465;51.038;7.052;2023-12-07T12:33:05;16.35;;;1.20;;
83247;SDS011;73465;51.038;7.052;2023-12-07T12:35:30;4.60;;;1.02;;
83247;SDS011;73465;51.038;7.052;2023-12-07T12:37:57;2.63;;;0.88;;
83247;SDS011;73465;51.038;7.052;2023-12-07T12:40:22;1.85;;;0.77;;
83247;SDS011;73465;51.038;7.052;2023-12-07T12:42:49;1.80;;;0.90;;
83247;SDS011;73465;51.038;7.052;2023-12-07T12:45:16;5.03;;;1.30;;
83247;SDS011;73465;51.038;7.052;2023-12-07T12:47:43;1.33;;;0.73;;
83247;SDS011;73465;51.038;7.052;2023-12-07T12:50:10;1.40;;;0.90;;
83247;SDS011;73465;51.038;7.052;2023-12-07T12:52:36;2.40;;;0.75;;
83247;SDS011;73465;51.038;7.052;2023-12-07T12:55:07;2.95;;;1.10;;
83247;SDS011;73465;51.038;7.052;2023-12-07T12:57:35;5.85;;;1.00;;
83247;SDS011;73465;51.038;7.052;2023-12-07T13:00:01;2.35;;;0.98;;
83247;SDS011;73465;51.038;7.052;2023-12-07T13:02:27;4.22;;;1.30;;
83247;SDS011;73465;51.038;7.052;2023-12-07T13:04:52;1.30;;;0.70;;
83247;SDS011;73465;51.038;7.052;2023-12-07T13:07:18;3.25;;;1.20;;
83247;SDS011;73465;51.038;7.052;2023-12-07T13:09:44;1.90;;;1.00;;
83247;SDS011;73465;51.038;7.052;2023-12-07T13:12:09;2.03;;;1.15;;
83247;SDS011;73465;51.038;7.052;2023-12-07T13:14:35;2.22;;;0.95;;
83247;SDS011;73465;51.038;7.052;2023-12-07T13:17:03;1.70;;;0.80;;
83247;SDS011;73465;51.038;7.052;2023-12-07T13:19:29;2.40;;;1.15;;
83247;SDS011;73465;51.038;7.052;2023-12-07T13:21:54;2.60;;;1.00;;
83247;SDS011;73465;51.038;7.052;2023-12-07T13:24:19;2.80;;;0.95;;
83247;SDS011;73465;51.038;7.052;2023-12-07T13:26:44;1.27;;;0.95;;
83247;SDS011;73465;51.038;7.052;2023-12-07T13:29:10;2.42;;;0.70;;
83247;SDS011;73465;51.038;7.052;2023-12-07T13:31:35;3.05;;;0.98;;
83247;SDS011;73465;51.038;7.052;2023-12-07T13:34:01;2.05;;;0.80;;
83247;SDS011;73465;51.038;7.052;2023-12-07T13:36:26;1.75;;;0.70;;
83247;SDS011;73465;51.038;7.052;2023-12-07T13:38:54;1.98;;;0.90;;
83247;SDS011;73465;51.038;7.052;2023-12-07T13:41:20;1.02;;;0.90;;
83247;SDS011;73465;51.038;7.052;2023-12-07T13:43:45;2.10;;;1.17;;
83247;SDS011;73465;51.038;7.052;2023-12-07T13:46:13;5.10;;;0.90;;
83247;SDS011;73465;51.038;7.052;2023-12-07T13:48:38;1.80;;;0.90;;
83247;SDS011;73465;51.038;7.052;2023-12-07T13:51:04;0.52;;;0.50;;
83247;SDS011;73465;51.038;7.052;2023-12-07T13:53:29;4.18;;;2.80;;
83247;SDS011;73465;51.038;7.052;2023-12-07T13:55:55;7.03;;;3.03;;
83247;SDS011;73465;51.038;7.052;2023-12-07T13:58:20;6.63;;;2.30;;
83247;SDS011;73465;51.038;7.052;2023-12-07T14:00:46;4.25;;;2.05;;
83247;SDS011;73465;51.038;7.052;2023-12-07T14:03:11;4.68;;;1.80;;
83247;SDS011;73465;51.038;7.052;2023-12-07T14:05:40;5.75;;;1.52;;
83247;SDS011;73465;51.038;7.052;2023-12-07T14:08:06;3.03;;;1.45;;
83247;SDS011;73465;51.038;7.052;2023-12-07T14:10:32;6.65;;;1.92;;
83247;SDS011;73465;51.038;7.052;2023-12-07T14:12:57;3.13;;;1.40;;
83247;SDS011;73465;51.038;7.052;2023-12-07T14:15:22;1.80;;;1.20;;
83247;SDS011;73465;51.038;7.052;2023-12-07T14:17:48;1.60;;;1.20;;
83247;SDS011;73465;51.038;7.052;2023-12-07T14:20:13;2.92;;;1.20;;
83247;SDS011;73465;51.038;7.052;2023-12-07T14:22:39;3.10;;;1.20;;
83247;SDS011;73465;51.038;7.052;2023-12-07T14:25:05;4.65;;;1.35;;
83247;SDS011;73465;51.038;7.052;2023-12-07T14:27:30;5.47;;;1.10;;
83247;SDS011;73465;51.038;7.052;2023-12-07T14:29:56;2.80;;;1.00;;
83247;SDS011;73465;51.038;7.052;2023-12-07T14:32:21;2.10;;;1.38;;
83247;SDS011;73465;51.038;7.052;2023-12-07T14:34:46;3.72;;;1.30;;
83247;SDS011;73465;51.038;7.052;2023-12-07T14:37:12;2.60;;;0.93;;
83247;SDS011;73465;51.038;7.052;2023-12-07T14:39:38;4.88;;;0.95;;
83247;SDS011;73465;51.038;7.052;2023-12-07T14:42:05;2.75;;;1.10;;
83247;SDS011;73465;51.038;7.052;2023-12-07T14:44:31;1.95;;;0.63;;
83247;SDS011;73465;51.038;7.052;2023-12-07T14:46:57;1.75;;;0.88;;
83247;SDS011;73465;51.038;7.052;2023-12-07T14:49:22;3.35;;;0.90;;
83247;SDS011;73465;51.038;7.052;2023-12-07T14:51:48;1.85;;;0.90;;
83247;SDS011;73465;51.038;7.052;2023-12-07T14:54:14;1.63;;;0.82;;
83247;SDS011;73465;51.038;7.052;2023-12-07T14:56:40;2.78;;;0.77;;
83247;SDS011;73465;51.038;7.052;2023-12-07T14:59:07;1.70;;;0.90;;
83247;SDS011;73465;51.038;7.052;2023-12-07T15:01:34;2.75;;;1.00;;